createdAt,value
2022-07-30T00:01:55.651Z,85.20
2022-07-30T00:11:57.895Z,85.95
2022-07-30T00:22:04.007Z,87.04
2022-07-30T00:32:06.672Z,87.81
2022-07-30T00:42:09.061Z,87.68
2022-07-30T00:52:11.332Z,88.86
2022-07-30T01:02:13.635Z,88.07
2022-07-30T01:12:20.209Z,87.94
2022-07-30T01:22:31.151Z,86.84
2022-07-30T01:32:37.009Z,86.59
2022-07-30T01:42:41.205Z,87.01
2022-07-30T01:52:46.160Z,87.00
2022-07-30T02:02:51.499Z,86.81
2022-07-30T02:12:56.977Z,88.09
2022-07-30T02:23:03.735Z,88.88
2022-07-30T02:33:10.846Z,88.66
2022-07-30T02:43:16.835Z,89.36
2022-07-30T02:53:21.444Z,90.28
2022-07-30T03:03:29.714Z,91.41
2022-07-30T03:13:32.115Z,90.56
2022-07-30T03:23:37.896Z,91.31
2022-07-30T03:33:41.616Z,92.21
2022-07-30T03:43:45.614Z,91.99
2022-07-30T03:53:48.866Z,92.43
2022-07-30T04:03:51.608Z,93.17
2022-07-30T04:13:53.915Z,93.29
2022-07-30T04:24:03.816Z,94.29
2022-07-30T04:34:07.706Z,94.29
2022-07-30T04:44:09.981Z,94.43
2022-07-30T04:54:16.030Z,94.92
2022-07-30T05:04:20.859Z,94.83
2022-07-30T05:14:24.649Z,94.61
2022-07-30T05:24:26.835Z,94.83
2022-07-30T05:34:29.193Z,94.33
2022-07-30T05:44:31.554Z,92.31
2022-07-30T05:54:33.694Z,91.12
2022-07-30T06:04:36.010Z,90.08
2022-07-30T06:14:38.472Z,86.55
2022-07-30T06:24:40.970Z,82.95
2022-07-30T06:34:43.824Z,80.23
2022-07-30T06:44:46.041Z,78.00
2022-07-30T06:54:48.814Z,76.22
2022-07-30T07:04:51.203Z,72.61
2022-07-30T07:14:53.582Z,69.05
2022-07-30T07:24:56.020Z,66.57
2022-07-30T07:34:59.363Z,63.36
2022-07-30T07:45:04.326Z,60.47
2022-07-30T07:55:07.825Z,60.09
2022-07-30T08:05:12.968Z,56.58
2022-07-30T08:15:17.082Z,55.72
2022-07-30T08:25:24.451Z,53.13
2022-07-30T08:35:27.058Z,51.92
2022-07-30T08:45:34.581Z,51.96
2022-07-30T08:55:38.425Z,50.23
2022-07-30T09:05:40.971Z,51.21
2022-07-30T09:15:43.667Z,49.83
2022-07-30T09:25:48.438Z,44.15
2022-07-30T09:35:56.916Z,43.86
2022-07-30T09:46:01.601Z,44.39
2022-07-30T09:56:30.048Z,42.73
2022-07-30T10:06:34.442Z,43.93
2022-07-30T10:16:36.982Z,42.37
2022-07-30T10:26:41.559Z,43.46
2022-07-30T10:36:51.873Z,38.66
2022-07-30T10:47:07.657Z,39.20
2022-07-30T10:57:31.912Z,40.96
2022-07-30T11:07:36.720Z,40.78
2022-07-30T11:17:59.516Z,41.18
2022-07-30T11:28:02.296Z,39.84
2022-07-30T11:38:18.926Z,37.93
2022-07-30T11:48:21.824Z,39.89
2022-07-30T11:58:27.309Z,43.27
2022-07-30T12:08:31.715Z,45.15
2022-07-30T12:18:40.470Z,40.62
2022-07-30T12:28:44.072Z,37.79
2022-07-30T12:38:52.571Z,36.00
2022-07-30T12:49:13.419Z,33.75
2022-07-30T12:59:27.129Z,38.85
2022-07-30T13:09:30.154Z,37.63
2022-07-30T13:19:34.101Z,40.33
2022-07-30T13:29:38.939Z,42.98
2022-07-30T13:39:47.224Z,39.12
2022-07-30T13:49:51.926Z,39.28
2022-07-30T13:59:54.395Z,44.01
2022-07-30T14:09:56.999Z,47.11
2022-07-30T14:20:01.556Z,49.43
2022-07-30T14:30:06.946Z,50.86
2022-07-30T14:40:17.895Z,47.62
2022-07-30T14:50:20.617Z,45.04
2022-07-30T15:00:24.429Z,44.79
2022-07-30T15:10:27.209Z,42.16
2022-07-30T15:20:30.885Z,45.71
2022-07-30T15:30:33.542Z,39.38
2022-07-30T15:40:36.437Z,41.58
2022-07-30T15:50:43.069Z,37.68
2022-07-30T16:00:45.600Z,47.16
2022-07-30T16:10:48.837Z,51.81
2022-07-30T16:20:51.305Z,53.65
2022-07-30T16:30:54.367Z,57.93
2022-07-30T16:40:57.201Z,60.06
2022-07-30T16:51:00.464Z,62.05
2022-07-30T17:01:03.398Z,65.38
2022-07-30T17:11:09.313Z,63.77
2022-07-30T17:21:12.629Z,66.06
2022-07-30T17:31:16.343Z,66.49
2022-07-30T17:41:18.835Z,65.84
2022-07-30T17:51:21.680Z,67.34
2022-07-30T18:01:26.633Z,65.65
2022-07-30T18:11:29.149Z,68.19
2022-07-30T18:21:32.202Z,68.14
2022-07-30T18:31:35.781Z,69.19
2022-07-30T18:41:38.085Z,70.85
2022-07-30T18:51:40.828Z,72.15
2022-07-30T19:01:44.522Z,73.14
2022-07-30T19:11:47.333Z,73.81
2022-07-30T19:21:50.533Z,73.80
2022-07-30T19:31:52.816Z,73.64
2022-07-30T19:41:55.563Z,74.53
2022-07-30T19:52:10.647Z,74.97
2022-07-30T20:02:22.421Z,77.12
2022-07-30T20:12:25.164Z,76.83
2022-07-30T20:22:29.654Z,77.58
2022-07-30T20:32:32.242Z,78.27
2022-07-30T20:42:35.831Z,79.04
2022-07-30T20:52:40.831Z,80.04
2022-07-30T21:02:46.441Z,80.12
2022-07-30T21:12:50.836Z,80.43
2022-07-30T21:22:56.611Z,80.58
2022-07-30T21:33:01.728Z,81.58
2022-07-30T21:43:04.548Z,81.50
2022-07-30T21:53:10.870Z,83.46
2022-07-30T22:04:00.612Z,83.11
2022-07-30T22:13:53.479Z,82.99
2022-07-30T22:23:58.452Z,84.52
2022-07-30T22:34:01.222Z,85.54
2022-07-30T22:44:03.909Z,86.62
2022-07-30T22:54:13.057Z,86.78
2022-07-30T23:04:15.835Z,87.15
2022-07-30T23:14:18.548Z,86.90
2022-07-30T23:24:21.091Z,87.04
2022-07-30T23:34:23.551Z,87.79
2022-07-30T23:44:25.924Z,88.81
2022-07-30T23:54:29.271Z,88.33
